Terminal Aerodrome Forecast
Issued by NWS

Home | Current Version | Previous Version | Text Only | Print | Product List | Glossary On
Versions: 1 2 3 4 5 6 7 8 9 10 11 12 13 14 15 16 17 18 19 20
000
FTUS44 KCRP 191700
TAFLRD
TAF
KLRD 191720Z 1918/2018 01010KT P6SM OVC005
     FM192000 01009KT P6SM SCT025
      TEMPO 1920/1923 BKN025
     FM201000 04005KT 5SM BR SCT003 BKN018
     FM201600 05006KT P6SM SCT020 BKN080=

USA.gov is the U.S. government's official web portal to all federal, state and local government web resources and services.